sensor_id;sensor_type;location;lat;lon;timestamp;temperature;humidity
23520;DHT22;11936;50.820;4.336;2023-06-01T00:01:56;18.70;99.90
23520;DHT22;11936;50.820;4.336;2023-06-01T00:04:21;18.60;99.90
23520;DHT22;11936;50.820;4.336;2023-06-01T00:06:47;18.50;99.90
23520;DHT22;11936;50.820;4.336;2023-06-01T00:09:13;18.60;99.90
23520;DHT22;11936;50.820;4.336;2023-06-01T00:11:38;18.50;99.90
23520;DHT22;11936;50.820;4.336;2023-06-01T00:14:04;18.50;99.90
23520;DHT22;11936;50.820;4.336;2023-06-01T00:16:30;18.30;99.90
23520;DHT22;11936;50.820;4.336;2023-06-01T00:18:56;18.30;99.90
23520;DHT22;11936;50.820;4.336;2023-06-01T00:21:22;18.30;99.90
23520;DHT22;11936;50.820;4.336;2023-06-01T00:23:48;18.20;99.90
23520;DHT22;11936;50.820;4.336;2023-06-01T00:26:14;18.20;99.90
23520;DHT22;11936;50.820;4.336;2023-06-01T00:28:40;18.20;99.90
23520;DHT22;11936;50.820;4.336;2023-06-01T00:31:06;18.10;99.90
23520;DHT22;11936;50.820;4.336;2023-06-01T00:33:32;18.20;99.90
23520;DHT22;11936;50.820;4.336;2023-06-01T00:35:57;18.20;99.90
23520;DHT22;11936;50.820;4.336;2023-06-01T00:38:23;18.10;99.90
23520;DHT22;11936;50.820;4.336;2023-06-01T00:40:48;18.10;99.90
23520;DHT22;11936;50.820;4.336;2023-06-01T00:43:15;18.10;99.90
23520;DHT22;11936;50.820;4.336;2023-06-01T00:45:41;18.10;99.90
23520;DHT22;11936;50.820;4.336;2023-06-01T00:48:07;17.90;99.90
23520;DHT22;11936;50.820;4.336;2023-06-01T00:50:33;17.80;99.90
23520;DHT22;11936;50.820;4.336;2023-06-01T00:52:59;17.60;99.90
23520;DHT22;11936;50.820;4.336;2023-06-01T00:55:26;17.70;99.90
23520;DHT22;11936;50.820;4.336;2023-06-01T00:57:52;17.50;99.90
23520;DHT22;11936;50.820;4.336;2023-06-01T01:00:20;17.60;99.90
23520;DHT22;11936;50.820;4.336;2023-06-01T01:02:48;17.60;99.90
23520;DHT22;11936;50.820;4.336;2023-06-01T01:05:15;17.60;99.90
23520;DHT22;11936;50.820;4.336;2023-06-01T01:07:56;17.70;99.90
23520;DHT22;11936;50.820;4.336;2023-06-01T01:10:32;17.70;99.90
23520;DHT22;11936;50.820;4.336;2023-06-01T01:13:41;17.60;99.90
23520;DHT22;11936;50.820;4.336;2023-06-01T01:19:04;17.60;99.90
23520;DHT22;11936;50.820;4.336;2023-06-01T01:21:41;17.60;99.90
23520;DHT22;11936;50.820;4.336;2023-06-01T01:24:34;17.60;99.90
23520;DHT22;11936;50.820;4.336;2023-06-01T01:30:03;17.50;99.90
23520;DHT22;11936;50.820;4.336;2023-06-01T01:32:31;17.70;99.90
23520;DHT22;11936;50.820;4.336;2023-06-01T01:34:58;17.60;99.90
23520;DHT22;11936;50.820;4.336;2023-06-01T01:37:25;17.60;99.90
23520;DHT22;11936;50.820;4.336;2023-06-01T01:39:51;17.50;99.90
23520;DHT22;11936;50.820;4.336;2023-06-01T01:42:17;17.40;99.90
23520;DHT22;11936;50.820;4.336;2023-06-01T01:44:43;17.30;99.90
23520;DHT22;11936;50.820;4.336;2023-06-01T01:47:43;17.20;99.90
23520;DHT22;11936;50.820;4.336;2023-06-01T01:50:10;17.00;99.90
23520;DHT22;11936;50.820;4.336;2023-06-01T01:52:39;17.20;99.90
23520;DHT22;11936;50.820;4.336;2023-06-01T01:55:08;17.30;99.90
23520;DHT22;11936;50.820;4.336;2023-06-01T01:57:34;17.30;99.90
23520;DHT22;11936;50.820;4.336;2023-06-01T02:00:02;17.30;99.90
23520;DHT22;11936;50.820;4.336;2023-06-01T02:02:28;17.40;99.90
23520;DHT22;11936;50.820;4.336;2023-06-01T02:04:54;17.30;99.90
23520;DHT22;11936;50.820;4.336;2023-06-01T02:07:20;17.20;99.90
23520;DHT22;11936;50.820;4.336;2023-06-01T02:09:46;17.30;99.90
23520;DHT22;11936;50.820;4.336;2023-06-01T02:12:12;17.20;99.90
23520;DHT22;11936;50.820;4.336;2023-06-01T02:14:37;17.10;99.90
23520;DHT22;11936;50.820;4.336;2023-06-01T02:17:04;17.00;99.90
23520;DHT22;11936;50.820;4.336;2023-06-01T02:19:30;17.30;99.90
23520;DHT22;11936;50.820;4.336;2023-06-01T02:21:57;17.20;99.90
23520;DHT22;11936;50.820;4.336;2023-06-01T02:24:22;16.90;99.90
23520;DHT22;11936;50.820;4.336;2023-06-01T02:26:48;16.80;99.90
23520;DHT22;11936;50.820;4.336;2023-06-01T02:29:17;16.80;99.90
23520;DHT22;11936;50.820;4.336;2023-06-01T02:31:45;16.70;99.90
23520;DHT22;11936;50.820;4.336;2023-06-01T02:34:11;16.80;99.90
23520;DHT22;11936;50.820;4.336;2023-06-01T02:36:36;16.80;99.90
23520;DHT22;11936;50.820;4.336;2023-06-01T02:39:02;16.90;99.90
23520;DHT22;11936;50.820;4.336;2023-06-01T02:41:28;16.80;99.90
23520;DHT22;11936;50.820;4.336;2023-06-01T02:43:53;16.70;99.90
23520;DHT22;11936;50.820;4.336;2023-06-01T02:46:19;16.70;99.90
23520;DHT22;11936;50.820;4.336;2023-06-01T02:48:45;16.60;99.90
23520;DHT22;11936;50.820;4.336;2023-06-01T02:51:11;16.60;99.90
23520;DHT22;11936;50.820;4.336;2023-06-01T02:53:39;16.70;99.90
23520;DHT22;11936;50.820;4.336;2023-06-01T02:56:05;16.60;99.90
23520;DHT22;11936;50.820;4.336;2023-06-01T02:58:31;16.60;99.90
23520;DHT22;11936;50.820;4.336;2023-06-01T03:00:56;16.50;99.90
23520;DHT22;11936;50.820;4.336;2023-06-01T03:03:25;16.40;99.90
23520;DHT22;11936;50.820;4.336;2023-06-01T03:05:51;16.30;99.90
23520;DHT22;11936;50.820;4.336;2023-06-01T03:08:17;16.40;99.90
23520;DHT22;11936;50.820;4.336;2023-06-01T03:10:43;16.40;99.90
23520;DHT22;11936;50.820;4.336;2023-06-01T03:13:09;16.30;99.90
23520;DHT22;11936;50.820;4.336;2023-06-01T03:15:34;16.30;99.90
23520;DHT22;11936;50.820;4.336;2023-06-01T03:18:03;16.30;99.90
23520;DHT22;11936;50.820;4.336;2023-06-01T03:20:29;16.10;99.90
23520;DHT22;11936;50.820;4.336;2023-06-01T03:22:55;16.30;99.90
23520;DHT22;11936;50.820;4.336;2023-06-01T03:25:20;16.30;99.90
23520;DHT22;11936;50.820;4.336;2023-06-01T03:27:46;16.30;99.90
23520;DHT22;11936;50.820;4.336;2023-06-01T03:30:12;16.20;99.90
23520;DHT22;11936;50.820;4.336;2023-06-01T03:32:42;16.10;99.90
23520;DHT22;11936;50.820;4.336;2023-06-01T03:35:09;16.10;99.90
23520;DHT22;11936;50.820;4.336;2023-06-01T03:37:43;16.00;99.90
23520;DHT22;11936;50.820;4.336;2023-06-01T03:40:09;15.90;99.90
23520;DHT22;11936;50.820;4.336;2023-06-01T03:42:47;15.90;99.90
23520;DHT22;11936;50.820;4.336;2023-06-01T03:45:14;15.90;99.90
23520;DHT22;11936;50.820;4.336;2023-06-01T03:47:41;15.90;99.90
23520;DHT22;11936;50.820;4.336;2023-06-01T03:50:08;16.00;99.90
23520;DHT22;11936;50.820;4.336;2023-06-01T03:52:35;16.00;99.90
23520;DHT22;11936;50.820;4.336;2023-06-01T03:55:01;16.00;99.90
23520;DHT22;11936;50.820;4.336;2023-06-01T03:57:27;15.90;99.90
23520;DHT22;11936;50.820;4.336;2023-06-01T03:59:53;15.80;99.90
23520;DHT22;11936;50.820;4.336;2023-06-01T04:02:19;15.80;99.90
23520;DHT22;11936;50.820;4.336;2023-06-01T04:04:45;15.90;99.90
23520;DHT22;11936;50.820;4.336;2023-06-01T04:07:12;15.90;99.90
23520;DHT22;11936;50.820;4.336;2023-06-01T04:09:40;15.70;99.90
23520;DHT22;11936;50.820;4.336;2023-06-01T04:12:06;15.80;99.90
23520;DHT22;11936;50.820;4.336;2023-06-01T04:14:32;15.70;99.90
23520;DHT22;11936;50.820;4.336;2023-06-01T04:16:57;15.80;99.90
23520;DHT22;11936;50.820;4.336;2023-06-01T04:19:23;15.90;99.90
23520;DHT22;11936;50.820;4.336;2023-06-01T04:21:49;15.70;99.90
23520;DHT22;11936;50.820;4.336;2023-06-01T04:24:15;15.80;99.90
23520;DHT22;11936;50.820;4.336;2023-06-01T04:26:41;15.80;99.90
23520;DHT22;11936;50.820;4.336;2023-06-01T04:29:07;15.90;99.90
23520;DHT22;11936;50.820;4.336;2023-06-01T04:31:34;15.80;99.90
23520;DHT22;11936;50.820;4.336;2023-06-01T04:34:00;15.70;99.90
23520;DHT22;11936;50.820;4.336;2023-06-01T04:36:28;15.70;99.90
23520;DHT22;11936;50.820;4.336;2023-06-01T04:38:54;15.90;99.90
23520;DHT22;11936;50.820;4.336;2023-06-01T04:41:21;15.90;99.90
23520;DHT22;11936;50.820;4.336;2023-06-01T04:43:52;15.80;99.90
23520;DHT22;11936;50.820;4.336;2023-06-01T04:46:22;15.90;99.90
23520;DHT22;11936;50.820;4.336;2023-06-01T04:48:54;15.90;99.90
23520;DHT22;11936;50.820;4.336;2023-06-01T04:51:23;15.90;99.90
23520;DHT22;11936;50.820;4.336;2023-06-01T04:53:50;16.00;99.90
23520;DHT22;11936;50.820;4.336;2023-06-01T04:56:21;16.10;99.90
23520;DHT22;11936;50.820;4.336;2023-06-01T04:58:54;16.00;99.90
23520;DHT22;11936;50.820;4.336;2023-06-01T05:01:24;16.00;99.90
23520;DHT22;11936;50.820;4.336;2023-06-01T05:03:55;16.00;99.90
23520;DHT22;11936;50.820;4.336;2023-06-01T05:06:21;15.90;99.90
23520;DHT22;11936;50.820;4.336;2023-06-01T05:08:47;15.90;99.90
23520;DHT22;11936;50.820;4.336;2023-06-01T05:11:13;15.70;99.90
23520;DHT22;11936;50.820;4.336;2023-06-01T05:13:40;15.80;99.90
23520;DHT22;11936;50.820;4.336;2023-06-01T05:16:07;15.50;99.90
23520;DHT22;11936;50.820;4.336;2023-06-01T05:18:33;15.50;99.90
23520;DHT22;11936;50.820;4.336;2023-06-01T05:20:59;15.50;99.90
23520;DHT22;11936;50.820;4.336;2023-06-01T05:23:26;15.60;99.90
23520;DHT22;11936;50.820;4.336;2023-06-01T05:25:52;15.80;99.90
23520;DHT22;11936;50.820;4.336;2023-06-01T05:28:20;15.70;99.90
23520;DHT22;11936;50.820;4.336;2023-06-01T05:30:46;15.90;99.90
23520;DHT22;11936;50.820;4.336;2023-06-01T05:33:12;16.00;99.90
23520;DHT22;11936;50.820;4.336;2023-06-01T05:35:37;16.10;99.90
23520;DHT22;11936;50.820;4.336;2023-06-01T05:38:03;16.00;99.90
23520;DHT22;11936;50.820;4.336;2023-06-01T05:40:29;16.00;99.90
23520;DHT22;11936;50.820;4.336;2023-06-01T05:42:54;15.80;99.90
23520;DHT22;11936;50.820;4.336;2023-06-01T05:45:20;15.90;99.90
23520;DHT22;11936;50.820;4.336;2023-06-01T05:47:46;16.00;99.90
23520;DHT22;11936;50.820;4.336;2023-06-01T05:50:12;15.90;99.90
23520;DHT22;11936;50.820;4.336;2023-06-01T05:52:37;16.10;99.90
23520;DHT22;11936;50.820;4.336;2023-06-01T05:55:04;16.20;99.90
23520;DHT22;11936;50.820;4.336;2023-06-01T05:57:30;16.30;99.90
23520;DHT22;11936;50.820;4.336;2023-06-01T05:59:56;16.30;99.90
23520;DHT22;11936;50.820;4.336;2023-06-01T06:02:21;16.10;99.90
23520;DHT22;11936;50.820;4.336;2023-06-01T06:04:47;16.10;99.90
23520;DHT22;11936;50.820;4.336;2023-06-01T06:07:13;16.10;99.90
23520;DHT22;11936;50.820;4.336;2023-06-01T06:09:39;16.20;99.90
23520;DHT22;11936;50.820;4.336;2023-06-01T06:12:05;16.30;99.90
23520;DHT22;11936;50.820;4.336;2023-06-01T06:14:31;16.20;99.90
23520;DHT22;11936;50.820;4.336;2023-06-01T06:16:58;16.20;99.90
23520;DHT22;11936;50.820;4.336;2023-06-01T06:19:23;16.20;99.90
23520;DHT22;11936;50.820;4.336;2023-06-01T06:21:49;16.20;99.90
23520;DHT22;11936;50.820;4.336;2023-06-01T06:24:15;16.10;99.90
23520;DHT22;11936;50.820;4.336;2023-06-01T06:26:40;16.20;99.90
23520;DHT22;11936;50.820;4.336;2023-06-01T06:29:06;16.20;99.90
23520;DHT22;11936;50.820;4.336;2023-06-01T06:31:32;16.30;99.90
23520;DHT22;11936;50.820;4.336;2023-06-01T06:33:57;16.30;99.90
23520;DHT22;11936;50.820;4.336;2023-06-01T06:36:23;16.60;99.90
23520;DHT22;11936;50.820;4.336;2023-06-01T06:38:49;16.60;99.90
23520;DHT22;11936;50.820;4.336;2023-06-01T06:41:14;16.70;99.90
23520;DHT22;11936;50.820;4.336;2023-06-01T06:43:40;16.80;99.90
23520;DHT22;11936;50.820;4.336;2023-06-01T06:46:06;16.80;99.90
23520;DHT22;11936;50.820;4.336;2023-06-01T06:48:32;17.00;99.90
23520;DHT22;11936;50.820;4.336;2023-06-01T06:50:57;16.90;99.90
23520;DHT22;11936;50.820;4.336;2023-06-01T06:53:23;17.00;99.90
23520;DHT22;11936;50.820;4.336;2023-06-01T06:55:49;17.00;99.90
23520;DHT22;11936;50.820;4.336;2023-06-01T06:58:14;16.80;99.90
23520;DHT22;11936;50.820;4.336;2023-06-01T07:00:40;16.80;99.90
23520;DHT22;11936;50.820;4.336;2023-06-01T07:03:06;16.70;99.90
23520;DHT22;11936;50.820;4.336;2023-06-01T07:05:32;16.50;99.90
23520;DHT22;11936;50.820;4.336;2023-06-01T07:07:58;16.40;99.90
23520;DHT22;11936;50.820;4.336;2023-06-01T07:10:24;16.50;99.90
23520;DHT22;11936;50.820;4.336;2023-06-01T07:12:51;16.60;99.90
23520;DHT22;11936;50.820;4.336;2023-06-01T07:15:16;16.70;99.90
23520;DHT22;11936;50.820;4.336;2023-06-01T07:17:42;16.60;99.90
23520;DHT22;11936;50.820;4.336;2023-06-01T07:20:08;16.80;99.90
23520;DHT22;11936;50.820;4.336;2023-06-01T07:22:38;17.00;99.90
23520;DHT22;11936;50.820;4.336;2023-06-01T07:25:04;17.10;99.90
23520;DHT22;11936;50.820;4.336;2023-06-01T07:27:31;17.10;99.90
23520;DHT22;11936;50.820;4.336;2023-06-01T07:29:57;17.10;99.90
23520;DHT22;11936;50.820;4.336;2023-06-01T07:32:23;17.10;99.90
23520;DHT22;11936;50.820;4.336;2023-06-01T07:34:49;16.80;99.90
23520;DHT22;11936;50.820;4.336;2023-06-01T07:37:15;16.70;99.90
23520;DHT22;11936;50.820;4.336;2023-06-01T07:39:41;16.80;99.90
23520;DHT22;11936;50.820;4.336;2023-06-01T07:42:06;16.80;99.90
23520;DHT22;11936;50.820;4.336;2023-06-01T07:44:32;16.80;99.90
23520;DHT22;11936;50.820;4.336;2023-06-01T07:46:58;16.60;99.90
23520;DHT22;11936;50.820;4.336;2023-06-01T07:49:24;16.60;99.90
23520;DHT22;11936;50.820;4.336;2023-06-01T07:51:50;16.80;99.90
23520;DHT22;11936;50.820;4.336;2023-06-01T07:54:17;16.70;99.90
23520;DHT22;11936;50.820;4.336;2023-06-01T07:56:43;16.50;99.90
23520;DHT22;11936;50.820;4.336;2023-06-01T07:59:09;16.60;99.90
23520;DHT22;11936;50.820;4.336;2023-06-01T08:01:34;16.70;99.90
23520;DHT22;11936;50.820;4.336;2023-06-01T08:04:00;16.40;99.90
23520;DHT22;11936;50.820;4.336;2023-06-01T08:06:27;16.30;99.90
23520;DHT22;11936;50.820;4.336;2023-06-01T08:08:52;16.30;99.90
23520;DHT22;11936;50.820;4.336;2023-06-01T08:11:18;16.20;99.90
23520;DHT22;11936;50.820;4.336;2023-06-01T08:13:44;16.30;99.90
23520;DHT22;11936;50.820;4.336;2023-06-01T08:16:13;16.40;99.90
23520;DHT22;11936;50.820;4.336;2023-06-01T08:18:40;16.60;99.90
23520;DHT22;11936;50.820;4.336;2023-06-01T08:21:05;16.80;99.90
23520;DHT22;11936;50.820;4.336;2023-06-01T08:23:34;16.80;99.90
23520;DHT22;11936;50.820;4.336;2023-06-01T08:26:00;16.80;99.90
23520;DHT22;11936;50.820;4.336;2023-06-01T08:28:26;16.70;99.90
23520;DHT22;11936;50.820;4.336;2023-06-01T08:30:52;16.70;99.90
23520;DHT22;11936;50.820;4.336;2023-06-01T08:33:17;16.70;99.90
23520;DHT22;11936;50.820;4.336;2023-06-01T08:35:43;16.80;99.90
23520;DHT22;11936;50.820;4.336;2023-06-01T08:38:09;16.90;99.90
23520;DHT22;11936;50.820;4.336;2023-06-01T08:40:35;16.90;99.90
23520;DHT22;11936;50.820;4.336;2023-06-01T08:43:18;16.70;99.90
23520;DHT22;11936;50.820;4.336;2023-06-01T08:45:44;16.80;99.90
23520;DHT22;11936;50.820;4.336;2023-06-01T08:48:17;16.60;99.90
23520;DHT22;11936;50.820;4.336;2023-06-01T08:50:47;16.50;99.90
23520;DHT22;11936;50.820;4.336;2023-06-01T08:53:20;16.50;99.90
23520;DHT22;11936;50.820;4.336;2023-06-01T08:55:51;16.50;99.90
23520;DHT22;11936;50.820;4.336;2023-06-01T08:58:17;16.40;99.90
23520;DHT22;11936;50.820;4.336;2023-06-01T09:00:42;16.40;99.90
23520;DHT22;11936;50.820;4.336;2023-06-01T09:03:08;16.40;99.90
23520;DHT22;11936;50.820;4.336;2023-06-01T09:05:34;16.50;99.90
23520;DHT22;11936;50.820;4.336;2023-06-01T09:07:59;16.60;99.90
23520;DHT22;11936;50.820;4.336;2023-06-01T09:10:25;16.60;99.90
23520;DHT22;11936;50.820;4.336;2023-06-01T09:12:54;16.60;99.90
23520;DHT22;11936;50.820;4.336;2023-06-01T09:15:21;16.70;99.90
23520;DHT22;11936;50.820;4.336;2023-06-01T09:17:49;16.80;99.90
23520;DHT22;11936;50.820;4.336;2023-06-01T09:20:26;16.90;99.90
23520;DHT22;11936;50.820;4.336;2023-06-01T09:22:53;17.10;99.90
23520;DHT22;11936;50.820;4.336;2023-06-01T09:25:25;17.20;99.90
23520;DHT22;11936;50.820;4.336;2023-06-01T09:27:52;17.30;99.90
23520;DHT22;11936;50.820;4.336;2023-06-01T09:30:20;17.30;99.90
23520;DHT22;11936;50.820;4.336;2023-06-01T09:32:47;17.30;99.90
23520;DHT22;11936;50.820;4.336;2023-06-01T09:35:18;17.40;99.90
23520;DHT22;11936;50.820;4.336;2023-06-01T09:38:02;17.50;99.90
23520;DHT22;11936;50.820;4.336;2023-06-01T09:40:32;17.50;99.90
23520;DHT22;11936;50.820;4.336;2023-06-01T09:42:58;17.60;99.90
23520;DHT22;11936;50.820;4.336;2023-06-01T09:45:24;17.80;99.90
23520;DHT22;11936;50.820;4.336;2023-06-01T09:47:51;17.70;99.90
23520;DHT22;11936;50.820;4.336;2023-06-01T09:50:37;17.80;99.90
23520;DHT22;11936;50.820;4.336;2023-06-01T09:53:04;17.80;99.90
23520;DHT22;11936;50.820;4.336;2023-06-01T09:55:30;17.80;99.90
23520;DHT22;11936;50.820;4.336;2023-06-01T09:58:18;17.70;99.90
23520;DHT22;11936;50.820;4.336;2023-06-01T10:00:47;17.90;99.90
23520;DHT22;11936;50.820;4.336;2023-06-01T10:03:14;17.90;99.90
23520;DHT22;11936;50.820;4.336;2023-06-01T10:05:40;18.00;99.90
23520;DHT22;11936;50.820;4.336;2023-06-01T10:08:06;18.10;99.90
23520;DHT22;11936;50.820;4.336;2023-06-01T10:10:32;18.10;99.90
23520;DHT22;11936;50.820;4.336;2023-06-01T10:12:58;18.30;99.90
23520;DHT22;11936;50.820;4.336;2023-06-01T10:15:24;18.50;99.90
23520;DHT22;11936;50.820;4.336;2023-06-01T10:17:50;18.50;99.90
23520;DHT22;11936;50.820;4.336;2023-06-01T10:20:16;18.50;99.90
23520;DHT22;11936;50.820;4.336;2023-06-01T10:22:42;18.50;99.90
23520;DHT22;11936;50.820;4.336;2023-06-01T10:25:10;18.50;99.90
23520;DHT22;11936;50.820;4.336;2023-06-01T10:27:51;18.40;99.90
23520;DHT22;11936;50.820;4.336;2023-06-01T10:30:17;18.50;99.90
23520;DHT22;11936;50.820;4.336;2023-06-01T10:32:47;18.70;99.90
23520;DHT22;11936;50.820;4.336;2023-06-01T10:40:42;18.90;99.90
23520;DHT22;11936;50.820;4.336;2023-06-01T10:46:22;19.10;99.90
23520;DHT22;11936;50.820;4.336;2023-06-01T10:48:54;19.10;99.90
23520;DHT22;11936;50.820;4.336;2023-06-01T10:51:21;19.30;99.90
23520;DHT22;11936;50.820;4.336;2023-06-01T10:53:47;19.30;99.90
23520;DHT22;11936;50.820;4.336;2023-06-01T10:56:24;19.50;99.00
23520;DHT22;11936;50.820;4.336;2023-06-01T10:59:10;19.60;99.20
23520;DHT22;11936;50.820;4.336;2023-06-01T11:01:41;19.60;98.40
23520;DHT22;11936;50.820;4.336;2023-06-01T11:04:07;19.60;97.90
23520;DHT22;11936;50.820;4.336;2023-06-01T11:06:35;19.60;97.60
23520;DHT22;11936;50.820;4.336;2023-06-01T11:09:08;19.70;97.90
23520;DHT22;11936;50.820;4.336;2023-06-01T11:14:14;19.80;97.00
23520;DHT22;11936;50.820;4.336;2023-06-01T11:16:41;19.90;97.10
23520;DHT22;11936;50.820;4.336;2023-06-01T11:19:10;19.90;97.40
23520;DHT22;11936;50.820;4.336;2023-06-01T11:21:43;19.90;98.30
23520;DHT22;11936;50.820;4.336;2023-06-01T11:24:15;19.80;97.40
23520;DHT22;11936;50.820;4.336;2023-06-01T11:26:43;19.90;97.50
23520;DHT22;11936;50.820;4.336;2023-06-01T11:29:20;19.90;97.50
23520;DHT22;11936;50.820;4.336;2023-06-01T11:31:58;20.00;97.80
23520;DHT22;11936;50.820;4.336;2023-06-01T11:34:42;20.20;97.10
23520;DHT22;11936;50.820;4.336;2023-06-01T11:37:13;20.20;96.90
23520;DHT22;11936;50.820;4.336;2023-06-01T11:39:40;20.30;95.40
23520;DHT22;11936;50.820;4.336;2023-06-01T11:42:17;20.40;95.90
23520;DHT22;11936;50.820;4.336;2023-06-01T11:44:46;20.40;94.70
23520;DHT22;11936;50.820;4.336;2023-06-01T11:47:21;20.40;95.20
23520;DHT22;11936;50.820;4.336;2023-06-01T11:49:48;20.40;95.60
23520;DHT22;11936;50.820;4.336;2023-06-01T11:52:15;20.50;95.40
23520;DHT22;11936;50.820;4.336;2023-06-01T11:54:41;20.50;95.80
23520;DHT22;11936;50.820;4.336;2023-06-01T11:57:07;20.50;96.20
23520;DHT22;11936;50.820;4.336;2023-06-01T11:59:41;20.50;95.10
23520;DHT22;11936;50.820;4.336;2023-06-01T12:02:26;20.40;95.50
23520;DHT22;11936;50.820;4.336;2023-06-01T12:05:05;20.50;93.90
23520;DHT22;11936;50.820;4.336;2023-06-01T12:07:50;20.60;94.50
23520;DHT22;11936;50.820;4.336;2023-06-01T12:10:20;20.60;95.10
23520;DHT22;11936;50.820;4.336;2023-06-01T12:12:46;20.70;95.50
23520;DHT22;11936;50.820;4.336;2023-06-01T12:15:14;20.70;93.70
23520;DHT22;11936;50.820;4.336;2023-06-01T12:17:54;20.80;93.20
23520;DHT22;11936;50.820;4.336;2023-06-01T12:20:39;20.80;93.70
23520;DHT22;11936;50.820;4.336;2023-06-01T12:25:50;20.90;92.90
23520;DHT22;11936;50.820;4.336;2023-06-01T12:28:16;20.80;93.60
23520;DHT22;11936;50.820;4.336;2023-06-01T12:30:43;20.90;93.00
23520;DHT22;11936;50.820;4.336;2023-06-01T12:33:09;20.90;92.90
23520;DHT22;11936;50.820;4.336;2023-06-01T12:35:54;20.90;92.70
23520;DHT22;11936;50.820;4.336;2023-06-01T12:38:20;21.00;92.90
23520;DHT22;11936;50.820;4.336;2023-06-01T12:40:46;21.00;92.00
23520;DHT22;11936;50.820;4.336;2023-06-01T12:43:18;21.10;92.00
23520;DHT22;11936;50.820;4.336;2023-06-01T12:45:44;21.20;91.60
23520;DHT22;11936;50.820;4.336;2023-06-01T12:48:32;21.20;93.00
23520;DHT22;11936;50.820;4.336;2023-06-01T12:50:58;21.20;92.50
23520;DHT22;11936;50.820;4.336;2023-06-01T12:53:24;21.30;92.90
23520;DHT22;11936;50.820;4.336;2023-06-01T12:55:49;21.20;92.00
23520;DHT22;11936;50.820;4.336;2023-06-01T12:58:15;21.30;92.70
23520;DHT22;11936;50.820;4.336;2023-06-01T13:00:41;21.40;91.50
23520;DHT22;11936;50.820;4.336;2023-06-01T13:03:06;21.50;91.70
23520;DHT22;11936;50.820;4.336;2023-06-01T13:05:33;21.50;92.00
23520;DHT22;11936;50.820;4.336;2023-06-01T13:07:58;21.50;91.10
23520;DHT22;11936;50.820;4.336;2023-06-01T13:10:25;21.60;91.20
23520;DHT22;11936;50.820;4.336;2023-06-01T13:12:52;21.70;91.20
23520;DHT22;11936;50.820;4.336;2023-06-01T13:15:17;21.70;91.20
23520;DHT22;11936;50.820;4.336;2023-06-01T13:17:43;21.80;90.40
23520;DHT22;11936;50.820;4.336;2023-06-01T13:20:09;21.70;90.30
23520;DHT22;11936;50.820;4.336;2023-06-01T13:22:37;21.60;90.70
23520;DHT22;11936;50.820;4.336;2023-06-01T13:25:04;21.70;90.60
23520;DHT22;11936;50.820;4.336;2023-06-01T13:27:30;21.60;91.20
23520;DHT22;11936;50.820;4.336;2023-06-01T13:29:56;21.70;90.30
23520;DHT22;11936;50.820;4.336;2023-06-01T13:32:22;21.70;89.90
23520;DHT22;11936;50.820;4.336;2023-06-01T13:34:47;21.80;87.90
23520;DHT22;11936;50.820;4.336;2023-06-01T13:37:13;21.70;87.70
23520;DHT22;11936;50.820;4.336;2023-06-01T13:39:39;21.80;87.90
23520;DHT22;11936;50.820;4.336;2023-06-01T13:42:04;21.90;89.70
23520;DHT22;11936;50.820;4.336;2023-06-01T13:44:32;21.90;89.50
23520;DHT22;11936;50.820;4.336;2023-06-01T13:46:58;22.00;90.10
23520;DHT22;11936;50.820;4.336;2023-06-01T13:49:24;22.10;88.30
23520;DHT22;11936;50.820;4.336;2023-06-01T13:51:49;22.30;88.90
23520;DHT22;11936;50.820;4.336;2023-06-01T13:54:15;22.30;88.60
23520;DHT22;11936;50.820;4.336;2023-06-01T13:56:41;22.40;86.00
23520;DHT22;11936;50.820;4.336;2023-06-01T13:59:07;22.50;88.20
23520;DHT22;11936;50.820;4.336;2023-06-01T14:01:33;22.50;88.00
23520;DHT22;11936;50.820;4.336;2023-06-01T14:04:00;22.40;88.30
23520;DHT22;11936;50.820;4.336;2023-06-01T14:06:26;22.40;86.60
23520;DHT22;11936;50.820;4.336;2023-06-01T14:08:52;22.50;87.70
23520;DHT22;11936;50.820;4.336;2023-06-01T14:11:17;22.60;87.40
23520;DHT22;11936;50.820;4.336;2023-06-01T14:13:43;22.60;87.70
23520;DHT22;11936;50.820;4.336;2023-06-01T14:16:08;22.70;89.70
23520;DHT22;11936;50.820;4.336;2023-06-01T14:18:34;22.80;90.20
23520;DHT22;11936;50.820;4.336;2023-06-01T14:21:00;22.90;88.80
23520;DHT22;11936;50.820;4.336;2023-06-01T14:23:26;23.00;88.40
23520;DHT22;11936;50.820;4.336;2023-06-01T14:25:51;23.20;88.00
23520;DHT22;11936;50.820;4.336;2023-06-01T14:28:17;23.30;88.20
23520;DHT22;11936;50.820;4.336;2023-06-01T14:30:42;23.40;85.10
23520;DHT22;11936;50.820;4.336;2023-06-01T14:33:08;23.50;84.60
23520;DHT22;11936;50.820;4.336;2023-06-01T14:35:37;23.40;84.60
